South Cave, United Kingdom
Current Conditions -  °F | °C
As of 2:50 PM on Monday 24 Nov 2014 (Local Time) from EGXV Reporting Station
Broken Clouds Broken Clouds  
Wind Chill:   Ceiling: 16000
Heat Index:   Visibility: 6mi
Dew Point:   Wind: 8mph
Humidity: 76%   Direction: 260°W
Pressure: 30.27"   Gusts: NA
Location:  53.77°N, 0.6°W
Report Text: EGXV 241450Z AUTO 26007KT 9999 BKN160/// 08/04 Q1025
Loading
Personal Weather Stations






























Interactive Weather Map New forecast layout! Learn more

10-Day Weather Forecast

Advertisements
Track Severe Weather on mobile